Dobrodošli na spletni strani vremenske postaje Senovo. Vse informacije so informativnega značaja, saj vremenska postaja ni del državne mreže meteoroloških postaj. AKTUALNIH OBVESTIL NI.


Sneg/Led Od: 23-02-2018 00:00 Do: 23:59 Opozorilo za: Sneg/Led Stopnja: Rumena info button

Pogled proti Armezu več informacij Pogled proti Armezu


Lisca več informacij Lisca


Radar strel več informacij blitzortung!


opozorilo za sneg/led več informacij rain snow radar


Obiščite še:

Template documentation
and downloads

And another site



Weather Underground, zgodovina - Tekstovno

Dnevni povzetek za December 31, 2017 Enote:  Metrično    Angleško   Obe
« Predhodni Dan
Naslednji Dan »
Dnevni Tedenski Mesečni Letni Po meri
  Višja: Nižja: Povprečje:
Temperatura: -17.8 °C -18 °C -13.9 °C
Točka rosišča: -17.8 °C -18.4 °C -16.5 °C
Vlažnost: Humidity % 57 % 73 %
Hitrost vetra: 0 km/h 0 km/h 8.2 km/h
Sunki vetra: 0 km/h - -
Veter:- - WSW
Zračni tlak: 0 hPa 34269.7 hPa -
Padavine: 0 mm    
Historical Graphs
 
 
Tabelarni podarki za December 31, 2017
Čas Temperatura Točka rosišča Zračni tlak Veter Hitrost vetra Sunki vetra Vlažnost Intenziteta padavin (urna)
-17.8 °C -17.8 °C 0 hPa Calm     Humidity % 0 mm
00:01 -18 °C -18.4 °C 34303.6 hPa Calm     94 % 0 mm
00:06 -17.7 °C -18.1 °C 34303.6 hPa WNW 4.7 km/h 22.5 km/h 95 % 0 mm
00:10 -17.6 °C -17.9 °C 34303.6 hPa WNW 6.4 km/h 22.5 km/h 95 % 0 mm
00:14 -17.5 °C -17.9 °C 34337.4 hPa WNW 5.1 km/h 15.6 km/h 95 % 0 mm
00:15 -17.4 °C -17.8 °C 34337.4 hPa WNW 4.2 km/h 15.6 km/h 95 % 0 mm
00:19 -17.4 °C -17.8 °C 34337.4 hPa WSW 1.8 km/h 7.6 km/h 95 % 0 mm
00:24 -17.2 °C -17.6 °C 34337.4 hPa West 3.9 km/h 12.7 km/h 95 % 0 mm
00:26 -17.2 °C -17.6 °C 34337.4 hPa West 4.2 km/h 12.7 km/h 95 % 0 mm
00:31 -17.1 °C -17.4 °C 34337.4 hPa WSW 6.3 km/h 10.3 km/h 95 % 0 mm
00:33 -17.1 °C -17.4 °C 34337.4 hPa SW 6.3 km/h 10.3 km/h 95 % 0 mm
00:34 -17.1 °C -17.4 °C 34337.4 hPa SW 6.3 km/h 11.1 km/h 95 % 0 mm
00:39 -16.7 °C -17.1 °C 34337.4 hPa WSW 7.6 km/h 15 km/h 96 % 0 mm
00:44 -16.5 °C -16.9 °C 34303.6 hPa SW 8.2 km/h 15 km/h 95 % 0 mm
00:47 -16.4 °C -16.8 °C 34303.6 hPa SSW 8.5 km/h 15 km/h 96 % 0 mm
00:51 -16.3 °C -16.7 °C 34303.6 hPa SSW 5.6 km/h 10.3 km/h 96 % 0 mm
00:52 -16.3 °C -16.7 °C 34303.6 hPa SSW 5.5 km/h 10.3 km/h 96 % 0 mm
00:57 -16.3 °C -16.6 °C 34303.6 hPa SSW 3.9 km/h 12.7 km/h 96 % 0 mm
00:59 -16.3 °C -16.6 °C 34337.4 hPa South 4.7 km/h 12.7 km/h 96 % 0 mm
01:04 -16.3 °C -16.7 °C 34337.4 hPa South 5.1 km/h 12.7 km/h 96 % 0 mm
01:06 -16.3 °C -16.7 °C 34337.4 hPa South 6.4 km/h 11.1 km/h 95 % 0 mm
01:11 -16.4 °C -16.8 °C 34337.4 hPa SSW 5.1 km/h 9.3 km/h 95 % 0 mm
01:14 -16.4 °C -16.8 °C 34337.4 hPa SSW 3.7 km/h 9.3 km/h 95 % 0 mm
01:19 -16.4 °C -16.8 °C 34337.4 hPa SSW 2.9 km/h 8.9 km/h 95 % 0 mm
01:20 -16.3 °C -16.7 °C 34337.4 hPa SSW 3.4 km/h 9.8 km/h 95 % 0 mm
01:25 -16.3 °C -16.7 °C 34337.4 hPa SSW 6.8 km/h 11.1 km/h 95 % 0 mm
01:26 -16.2 °C -16.6 °C 34337.4 hPa South 7.6 km/h 11.1 km/h 95 % 0 mm
01:27 -16.2 °C -16.6 °C 34337.4 hPa South 7.6 km/h 14.5 km/h 95 % 0 mm
01:32 -16.2 °C -16.6 °C 34371.3 hPa South 8.9 km/h 14.5 km/h 95 % 0 mm
01:36 -16.1 °C -16.5 °C 34371.3 hPa South 9 km/h 14.5 km/h 95 % 0 mm
01:37 -16.1 °C -16.5 °C 34371.3 hPa South 8.9 km/h 14.5 km/h 95 % 0 mm
01:41 -16.1 °C -16.5 °C 34371.3 hPa South 8.5 km/h 20.3 km/h 95 % 0 mm
01:43 -16.1 °C -16.5 °C 34371.3 hPa South 8.9 km/h 20.3 km/h 95 % 0 mm
01:45 -16.1 °C -16.5 °C 34371.3 hPa South 8.2 km/h 20.3 km/h 95 % 0 mm
01:50 -16.1 °C -16.4 °C 34371.3 hPa SSW 8.5 km/h 20.3 km/h 95 % 0 mm
01:53 -16.1 °C -16.6 °C 34371.3 hPa SW 6.9 km/h 16.9 km/h 94 % 0 mm
01:54 -16.1 °C -16.6 °C 34371.3 hPa SW 6.8 km/h 16.9 km/h 94 % 0 mm
01:59 -16.1 °C -16.6 °C 34371.3 hPa SW 3.9 km/h 9.8 km/h 94 % 0 mm
02:00 -16.1 °C -16.6 °C 34371.3 hPa SW 3.9 km/h 9.8 km/h 94 % 0 mm
02:05 -16.3 °C -16.8 °C 34371.3 hPa SW 3.7 km/h 8.9 km/h 94 % 0 mm
02:06 -16.3 °C -16.8 °C 34371.3 hPa WSW 3.7 km/h 8.9 km/h 94 % 0 mm
02:07 -16.4 °C -16.9 °C 34371.3 hPa WSW 4.2 km/h 8.9 km/h 94 % 0 mm
02:12 -16.4 °C -16.9 °C 34371.3 hPa NW 5 km/h 14.5 km/h 94 % 0 mm
02:17 -16.5 °C -17 °C 34371.3 hPa NW 5 km/h 14.5 km/h 94 % 0 mm
02:18 -16.5 °C -17.1 °C 34371.3 hPa NW 4.7 km/h 14.5 km/h 93 % 0 mm
02:20 -16.5 °C -17.1 °C 34371.3 hPa WNW 3.9 km/h 8.9 km/h 93 % 0 mm
02:24 -16.4 °C -16.9 °C 34371.3 hPa WSW 2.9 km/h 11.1 km/h 93 % 0 mm
02:29 -16.3 °C -16.9 °C 34337.4 hPa West 3.1 km/h 11.1 km/h 93 % 0 mm
02:31 -16.3 °C -16.9 °C 34337.4 hPa West 2.9 km/h 9.8 km/h 93 % 0 mm
02:36 -16.3 °C -16.8 °C 34337.4 hPa NW 1.6 km/h 9.8 km/h 93 % 0 mm
02:38 -16.3 °C -16.8 °C 34337.4 hPa NNW 1.6 km/h 8 km/h 93 % 0 mm
02:39 -16.3 °C -16.8 °C 34337.4 hPa NNW 1.8 km/h 8 km/h 93 % 0 mm
02:44 -16.3 °C -16.8 °C 34337.4 hPa NNW 3.9 km/h 9.8 km/h 93 % 0 mm
02:45 -16.2 °C -16.8 °C 34337.4 hPa NNW 4.2 km/h 9.8 km/h 93 % 0 mm
02:50 -16.1 °C -16.6 °C 34337.4 hPa WNW 4.7 km/h 15 km/h 93 % 0 mm
02:51 -16 °C -16.6 °C 34337.4 hPa WNW 4.7 km/h 15 km/h 93 % 0 mm
02:52 -16 °C -16.6 °C 34337.4 hPa WNW 5 km/h 15 km/h 93 % 0 mm
02:57 -15.8 °C -16.4 °C 34337.4 hPa West 5.1 km/h 12.2 km/h 93 % 0 mm
03:02 -15.7 °C -16.3 °C 34337.4 hPa West 4.2 km/h 12.2 km/h 93 % 0 mm
03:04 -15.7 °C -16.3 °C 34337.4 hPa SW 3.1 km/h 9.3 km/h 93 % 0 mm
03:08 -15.7 °C -16.2 °C 34337.4 hPa SW 4.2 km/h 11.1 km/h 93 % 0 mm
03:13 -15.6 °C -16.2 °C 34337.4 hPa SW 3.9 km/h 11.1 km/h 93 % 0 mm
03:15 -15.6 °C -16.3 °C 34337.4 hPa SW 3.1 km/h 11.1 km/h 92 % 0 mm
03:20 -15.5 °C -16.2 °C 34337.4 hPa SW 5.1 km/h 12.2 km/h 92 % 0 mm
03:25 -15.4 °C -16.1 °C 34337.4 hPa SW 5.5 km/h 11.1 km/h 92 % 0 mm
03:30 -15.5 °C -16.2 °C 34337.4 hPa SW 3.7 km/h 8 km/h 91 % 0 mm
03:31 -15.5 °C -16.2 °C 34337.4 hPa SW 3.4 km/h 8 km/h 91 % 0 mm
03:36 -15.4 °C -16.2 °C 34337.4 hPa SW 5.6 km/h 15 km/h 91 % 0 mm
03:41 -15.4 °C -16.2 °C 34337.4 hPa SW 7.6 km/h 15.6 km/h 91 % 0 mm
03:44 -15.3 °C -16.1 °C 34303.6 hPa WSW 7.2 km/h 15.6 km/h 91 % 0 mm
03:49 -15.3 °C -16.1 °C 34303.6 hPa WSW 7.6 km/h 20.9 km/h 90 % 0 mm
03:54 -15.2 °C -16 °C 34303.6 hPa WSW 9.3 km/h 20.9 km/h 90 % 0 mm
03:55 -15.2 °C -16 °C 34303.6 hPa WSW 9.8 km/h 20.9 km/h 90 % 0 mm
04:00 -15.1 °C -15.9 °C 34303.6 hPa WSW 8.5 km/h 17.9 km/h 90 % 0 mm
04:04 -15.1 °C -16 °C 34303.6 hPa SW 8.5 km/h 17.9 km/h 89 % 0 mm
04:05 -15.1 °C -16 °C 34303.6 hPa SW 8.5 km/h 16.3 km/h 89 % 0 mm
04:11 -15.1 °C -16 °C 34303.6 hPa SW 9 km/h 25.4 km/h 89 % 0 mm
04:16 -14.9 °C -15.9 °C 34303.6 hPa WSW 10.9 km/h 25.4 km/h 88 % 0 mm
04:21 -14.9 °C -16.1 °C 34303.6 hPa WSW 11.6 km/h 22.5 km/h 87 % 0 mm
04:24 -14.9 °C -16 °C 34303.6 hPa WSW 10.6 km/h 22.5 km/h 87 % 0 mm
04:29 -14.9 °C -16.1 °C 34269.7 hPa SW 9.7 km/h 16.9 km/h 87 % 0 mm
04:34 -14.9 °C -16.2 °C 34269.7 hPa SW 8.2 km/h 16.3 km/h 86 % 0 mm
04:35 -14.9 °C -16.2 °C 34269.7 hPa SW 8 km/h 16.3 km/h 86 % 0 mm
04:40 -14.9 °C -16.2 °C 34269.7 hPa SSW 8.9 km/h 16.3 km/h 86 % 0 mm
04:41 -14.9 °C -16.2 °C 34269.7 hPa SSW 8.9 km/h 16.3 km/h 86 % 0 mm
04:46 -14.9 °C -16.2 °C 34269.7 hPa SSW 7.2 km/h 15.6 km/h 85 % 0 mm
04:50 -14.9 °C -16.2 °C 34269.7 hPa SSW 6.3 km/h 15.6 km/h 85 % 0 mm
04:55 -14.9 °C -16.3 °C 34269.7 hPa SSW 6.3 km/h 15.6 km/h 84 % 0 mm
04:57 -14.9 °C -16.3 °C 34269.7 hPa South 6.8 km/h 15.6 km/h 84 % 0 mm
05:02 -14.9 °C -16.3 °C 34269.7 hPa South 7.7 km/h 18.7 km/h 84 % 0 mm
05:06 -14.9 °C -16.3 °C 34269.7 hPa SSW 8.5 km/h 18.7 km/h 83 % 0 mm
05:12 -14.9 °C -16.3 °C 34269.7 hPa SSW 8.9 km/h 17.9 km/h 83 % 0 mm
05:14 -14.9 °C -16.3 °C 34303.6 hPa South 7.7 km/h 14.5 km/h 83 % 0 mm
05:19 -14.9 °C -16.5 °C 34303.6 hPa South 6.9 km/h 14 km/h 82 % 0 mm
05:24 -14.9 °C -16.5 °C 34303.6 hPa South 4.7 km/h 14 km/h 82 % 0 mm
05:26 -14.9 °C -16.6 °C 34303.6 hPa South 4.7 km/h 12.2 km/h 81 % 0 mm
05:31 -15 °C -16.7 °C 34303.6 hPa South 5 km/h 11.1 km/h 81 % 0 mm
05:35 -15 °C -16.7 °C 34303.6 hPa South 6.8 km/h 11.1 km/h 81 % 0 mm
05:40 -15 °C -16.8 °C 34303.6 hPa SSW 6.4 km/h 11.1 km/h 80 % 0 mm
05:41 -15 °C -16.8 °C 34303.6 hPa SSW 6.3 km/h 16.9 km/h 80 % 0 mm
05:46 -14.9 °C -16.7 °C 34269.7 hPa SSW 7.7 km/h 16.9 km/h 80 % 0 mm
05:48 -14.9 °C -16.7 °C 34269.7 hPa SSW 8.2 km/h 16.9 km/h 80 % 0 mm
05:50 -14.9 °C -16.7 °C 34269.7 hPa SSW 9.8 km/h 16.9 km/h 80 % 0 mm
05:55 -14.9 °C -16.8 °C 34269.7 hPa SSW 9.8 km/h 16.3 km/h 79 % 0 mm
05:57 -14.9 °C -16.8 °C 34269.7 hPa SSW 11.1 km/h 20.9 km/h 79 % 0 mm
06:02 -14.8 °C -16.7 °C 34303.6 hPa SSW 12.2 km/h 20.9 km/h 79 % 0 mm
06:07 -14.8 °C -16.7 °C 34303.6 hPa SSW 10.1 km/h 17.9 km/h 78 % 0 mm
06:12 -14.8 °C -16.7 °C 34303.6 hPa SSW 9.7 km/h 27.2 km/h 78 % 0 mm
06:17 -14.7 °C -16.7 °C 34303.6 hPa SSW 10.6 km/h 27.2 km/h 78 % 0 mm
06:22 -14.7 °C -16.7 °C 34303.6 hPa SSW 11.6 km/h 27.2 km/h 78 % 0 mm
06:23 -14.7 °C -16.8 °C 34303.6 hPa SSW 11.6 km/h 27.2 km/h 77 % 0 mm
06:24 -14.7 °C -16.8 °C 34303.6 hPa SSW 12.2 km/h 27.2 km/h 77 % 0 mm
06:25 -14.7 °C -16.7 °C 34303.6 hPa SW 12.7 km/h 27.2 km/h 77 % 0 mm
06:30 -14.6 °C -16.7 °C 34337.4 hPa WSW 12.4 km/h 33.6 km/h 77 % 0 mm
06:31 -14.6 °C -16.7 °C 34337.4 hPa WSW 12.9 km/h 33.6 km/h 77 % 0 mm
06:36 -14.6 °C -16.7 °C 34337.4 hPa WSW 12.7 km/h 33.6 km/h 77 % 0 mm
06:41 -14.6 °C -16.7 °C 34337.4 hPa WSW 12.2 km/h 27.2 km/h 76 % 0 mm
06:43 -14.6 °C -16.7 °C 34303.6 hPa WSW 11.4 km/h 27.2 km/h 76 % 0 mm
06:49 -14.6 °C -16.8 °C 34303.6 hPa SW 8.5 km/h 16.3 km/h 76 % 0 mm
06:54 -14.6 °C -16.8 °C 34303.6 hPa SW 6.4 km/h 12.2 km/h 75 % 0 mm
06:56 -14.6 °C -16.8 °C 34303.6 hPa SW 6 km/h 12.2 km/h 75 % 0 mm
07:00 -14.6 °C -16.8 °C 34337.4 hPa SE 5 km/h 9.3 km/h 75 % 0 mm
07:05 -14.6 °C -16.8 °C 34337.4 hPa SE 4.7 km/h 11.1 km/h 75 % 0 mm
07:06 -14.6 °C -16.8 °C 34337.4 hPa South 5 km/h 15.6 km/h 75 % 0 mm
07:11 -14.6 °C -16.9 °C 34337.4 hPa SW 6.4 km/h 23 km/h 74 % 0 mm
07:13 -14.6 °C -16.9 °C 34337.4 hPa SW 7.6 km/h 23 km/h 74 % 0 mm
07:15 -14.6 °C -16.9 °C 34337.4 hPa WSW 7.6 km/h 23 km/h 74 % 0 mm
07:19 -14.6 °C -16.9 °C 34337.4 hPa SW 6.9 km/h 23 km/h 74 % 0 mm
07:24 -14.6 °C -16.9 °C 34337.4 hPa WSW 7.2 km/h 15 km/h 74 % 0 mm
07:25 -14.6 °C -16.9 °C 34337.4 hPa WSW 7.6 km/h 15 km/h 74 % 0 mm
07:30 -14.6 °C -17.1 °C 34371.3 hPa SW 8.5 km/h 22.5 km/h 73 % 0 mm
07:35 -14.6 °C -17.1 °C 34371.3 hPa SW 8.5 km/h 22.5 km/h 73 % 0 mm
07:40 -14.6 °C -17.1 °C 34371.3 hPa SW 6.4 km/h 16.3 km/h 73 % 0 mm
07:45 -14.5 °C -17 °C 34371.3 hPa WSW 8.9 km/h 18.7 km/h 73 % 0 mm
07:46 -14.5 °C -17 °C 34371.3 hPa WSW 9.7 km/h 18.7 km/h 73 % 0 mm
07:47 -14.5 °C -17 °C 34371.3 hPa WSW 10.1 km/h 18.7 km/h 73 % 0 mm
07:51 -14.5 °C -17.1 °C 34371.3 hPa WSW 11.1 km/h 26.7 km/h 72 % 0 mm
07:52 -14.5 °C -17.1 °C 34371.3 hPa WSW 11.1 km/h 26.7 km/h 72 % 0 mm
07:57 -14.4 °C -17.1 °C 34371.3 hPa SW 10.9 km/h 26.7 km/h 72 % 0 mm
08:02 -14.4 °C -17 °C 34371.3 hPa WSW 11.1 km/h 22.5 km/h 72 % 0 mm
08:03 -14.4 °C -17 °C 34371.3 hPa WSW 11.4 km/h 22.5 km/h 72 % 0 mm
08:08 -14.3 °C -17.1 °C 34371.3 hPa WSW 11.4 km/h 22 km/h 71 % 0 mm
08:09 -14.3 °C -17.1 °C 34371.3 hPa SW 12.2 km/h 22 km/h 71 % 0 mm
08:11 -14.4 °C -17.1 °C 34371.3 hPa SW 12.9 km/h 22 km/h 71 % 0 mm
08:15 -14.4 °C -17.1 °C 34371.3 hPa SW 13.5 km/h 22 km/h 71 % 0 mm
08:20 -14.3 °C -17.1 °C 34371.3 hPa WSW 10.6 km/h 19.6 km/h 71 % 0 mm
08:24 -14.3 °C -17 °C 34371.3 hPa WSW 10.1 km/h 44.6 km/h 71 % 0 mm
08:26 -14.3 °C -17 °C 34371.3 hPa WSW 9.8 km/h 44.6 km/h 71 % 0 mm
08:31 -14.3 °C -17 °C 34371.3 hPa West 10.9 km/h 44.6 km/h 71 % 0 mm
08:32 -14.2 °C -16.9 °C 34371.3 hPa WSW 11.1 km/h 44.6 km/h 71 % 0 mm
08:37 -14.2 °C -17.1 °C 34371.3 hPa WSW 11.4 km/h 36.5 km/h 70 % 0 mm
08:42 -14.2 °C -17.1 °C 34371.3 hPa WSW 11.4 km/h 19.6 km/h 70 % 0 mm
08:43 -14.2 °C -17.1 °C 34371.3 hPa WSW 11.1 km/h 19.6 km/h 70 % 0 mm
08:48 -14.2 °C -17.1 °C 34371.3 hPa WSW 11.1 km/h 19.6 km/h 70 % 0 mm
08:53 -14.2 °C -17 °C 34371.3 hPa WSW 12.4 km/h 34.1 km/h 70 % 0 mm
08:54 -14.2 °C -17 °C 34371.3 hPa WSW 12.9 km/h 34.1 km/h 70 % 0 mm
08:59 -14.2 °C -17.1 °C 34405.1 hPa WSW 11.6 km/h 34.1 km/h 69 % 0 mm
09:04 -14.2 °C -17.1 °C 34405.1 hPa West 10.1 km/h 27.7 km/h 69 % 0 mm
09:08 -14.2 °C -17.1 °C 34405.1 hPa West 12.4 km/h 45.1 km/h 69 % 0 mm
09:10 -14.1 °C -17.1 °C 34405.1 hPa West 13.2 km/h 45.1 km/h 69 % 0 mm
09:13 -14.1 °C -17.1 °C 34405.1 hPa West 13.7 km/h 45.1 km/h 69 % 0 mm
09:18 -14.1 °C -17.1 °C 34405.1 hPa SW 11.4 km/h 24.8 km/h 69 % 0 mm
09:20 -14.1 °C -17.1 °C 34405.1 hPa SW 11.1 km/h 29.5 km/h 69 % 0 mm
09:26 -14.1 °C -17.1 °C 34405.1 hPa SW 12.2 km/h 32.3 km/h 68 % 0 mm
09:31 -14 °C -17.1 °C 34405.1 hPa WSW 13.7 km/h 32.3 km/h 68 % 0 mm
09:32 -14 °C -17.1 °C 34405.1 hPa WSW 14.5 km/h 32.3 km/h 68 % 0 mm
09:37 -13.9 °C -17.1 °C 34405.1 hPa WSW 14.8 km/h 33.2 km/h 67 % 0 mm
09:38 -13.9 °C -17.1 °C 34405.1 hPa WSW 14.5 km/h 33.2 km/h 67 % 0 mm
09:43 -13.8 °C -17 °C 34405.1 hPa West 11.9 km/h 33.2 km/h 67 % 0 mm
09:45 -13.8 °C -16.9 °C 34405.1 hPa West 12.4 km/h 33.2 km/h 67 % 0 mm
09:48 -13.7 °C -16.9 °C 34405.1 hPa West 12.2 km/h 28.5 km/h 67 % 0 mm
09:50 -13.7 °C -16.9 °C 34405.1 hPa West 13.5 km/h 31.9 km/h 67 % 0 mm
09:53 -13.7 °C -16.8 °C 34405.1 hPa West 14.8 km/h 31.9 km/h 67 % 0 mm
09:58 -13.6 °C -16.8 °C 34405.1 hPa WSW 16.3 km/h 31.9 km/h 67 % 0 mm
10:03 -13.4 °C -16.8 °C 34405.1 hPa West 18.8 km/h 31.4 km/h 66 % 0 mm
10:04 -13.4 °C -16.8 °C 34405.1 hPa West 18.7 km/h 31.4 km/h 66 % 0 mm
10:05 -13.4 °C -16.8 °C 34405.1 hPa West 19.2 km/h 31.4 km/h 66 % 0 mm
10:10 -13.4 °C -16.7 °C 34405.1 hPa West 16.9 km/h 27.7 km/h 66 % 0 mm
10:15 -13.3 °C -16.8 °C 34405.1 hPa West 14 km/h 27.7 km/h 65 % 0 mm
10:17 -13.3 °C -16.8 °C 34405.1 hPa West 12.7 km/h 26.2 km/h 65 % 0 mm
10:22 -13.3 °C -16.7 °C 34405.1 hPa WSW 14.8 km/h 29 km/h 65 % 0 mm
10:27 -13.2 °C -16.7 °C 34405.1 hPa WSW 15.3 km/h 38.3 km/h 65 % 0 mm
10:28 -13.2 °C -16.8 °C 34405.1 hPa West 14.8 km/h 38.3 km/h 64 % 0 mm
10:33 -13.2 °C -16.7 °C 34405.1 hPa West 13.7 km/h 38.3 km/h 64 % 0 mm
10:34 -13.2 °C -16.7 °C 34405.1 hPa West 13.2 km/h 27.2 km/h 64 % 0 mm
10:39 -13.1 °C -16.7 °C 34405.1 hPa WSW 10.6 km/h 24.3 km/h 64 % 0 mm
10:40 -13.1 °C -16.7 °C 34405.1 hPa WSW 10.6 km/h 24.3 km/h 64 % 0 mm
10:45 -13.1 °C -16.6 °C 34405.1 hPa SW 10.9 km/h 32.3 km/h 64 % 0 mm
10:46 -13.1 °C -16.6 °C 34405.1 hPa WSW 12.4 km/h 32.3 km/h 64 % 0 mm
10:48 -13 °C -16.7 °C 34405.1 hPa WSW 14.8 km/h 32.3 km/h 63 % 0 mm
10:53 -12.9 °C -16.6 °C 34405.1 hPa West 15 km/h 32.3 km/h 63 % 0 mm
10:58 -12.9 °C -16.6 °C 34405.1 hPa SW 14.5 km/h 28.5 km/h 63 % 0 mm
11:02 -12.9 °C -16.6 °C 34405.1 hPa SW 12.9 km/h 27.2 km/h 63 % 0 mm
11:03 -12.9 °C -16.6 °C 34405.1 hPa WSW 14.2 km/h 27.2 km/h 63 % 0 mm
11:08 -12.8 °C -16.6 °C 34405.1 hPa WNW 12.2 km/h 26.7 km/h 63 % 0 mm
11:13 -12.8 °C -16.6 °C 34405.1 hPa WNW 12.7 km/h 33.6 km/h 62 % 0 mm
11:14 -12.8 °C -16.6 °C 34405.1 hPa WNW 12.9 km/h 33.6 km/h 62 % 0 mm
11:16 -12.8 °C -16.6 °C 34405.1 hPa West 12.4 km/h 33.6 km/h 62 % 0 mm
11:19 -12.8 °C -16.6 °C 34405.1 hPa West 12.4 km/h 33.6 km/h 62 % 0 mm
11:24 -12.7 °C -16.5 °C 34405.1 hPa WNW 11.1 km/h 25.4 km/h 62 % 0 mm
11:25 -12.7 °C -16.5 °C 34405.1 hPa WNW 11.4 km/h 25.4 km/h 62 % 0 mm
11:30 -12.5 °C -16.5 °C 34405.1 hPa WSW 12.7 km/h 32.3 km/h 61 % 0 mm
11:32 -12.4 °C -16.4 °C 34405.1 hPa SW 12.7 km/h 32.3 km/h 61 % 0 mm
11:37 -12.3 °C -16.3 °C 34405.1 hPa SW 10.3 km/h 19.6 km/h 61 % 0 mm
11:38 -12.3 °C -16.3 °C 34405.1 hPa SW 9 km/h 19.6 km/h 61 % 0 mm
11:43 -12.2 °C -16.2 °C 34428.8 hPa WSW 10.3 km/h 26.2 km/h 61 % 0 mm
11:47 -12.1 °C -16.1 °C 34428.8 hPa WSW 9 km/h 26.2 km/h 61 % 0 mm
11:52 -12.1 °C -16.1 °C 34428.8 hPa West 9.7 km/h 22.5 km/h 61 % 0 mm
11:57 -12.1 °C -16.2 °C 34428.8 hPa West 10.3 km/h 26.2 km/h 60 % 0 mm
11:58 -12.1 °C -16.2 °C 34428.8 hPa West 10.9 km/h 26.2 km/h 60 % 0 mm
12:03 -12.1 °C -16.2 °C 34428.8 hPa West 11.1 km/h 27.2 km/h 60 % 0 mm
12:08 -12 °C -16.3 °C 34428.8 hPa West 9.3 km/h 27.2 km/h 59 % 0 mm
12:09 -12 °C -16.3 °C 34428.8 hPa West 9.3 km/h 27.2 km/h 59 % 0 mm
12:11 -12 °C -16.3 °C 34428.8 hPa West 8.2 km/h 27.2 km/h 59 % 0 mm
12:15 -12 °C -16.3 °C 34405.1 hPa West 8.9 km/h 24.8 km/h 59 % 0 mm
12:20 -12 °C -16.3 °C 34405.1 hPa West 8 km/h 24.8 km/h 59 % 0 mm
12:25 -12 °C -16.3 °C 34405.1 hPa WNW 8.5 km/h 28.5 km/h 59 % 0 mm
12:26 -12 °C -16.4 °C 34405.1 hPa WNW 8.5 km/h 28.5 km/h 58 % 0 mm
12:31 -12 °C -16.4 °C 34405.1 hPa WNW 10.6 km/h 28.5 km/h 58 % 0 mm
12:34 -11.9 °C -16.3 °C 34405.1 hPa WNW 11.1 km/h 20.9 km/h 58 % 0 mm
12:38 -11.9 °C -16.3 °C 34405.1 hPa WNW 10.6 km/h 20.9 km/h 58 % 0 mm
12:41 -11.9 °C -16.3 °C 34405.1 hPa WNW 9.7 km/h 20.9 km/h 58 % 0 mm
12:46 -11.9 °C -16.3 °C 34405.1 hPa NW 8.2 km/h 22 km/h 58 % 0 mm
12:47 -11.9 °C -16.3 °C 34405.1 hPa NW 8.2 km/h 22 km/h 58 % 0 mm
12:52 -11.9 °C -16.3 °C 34405.1 hPa NW 9.3 km/h 22 km/h 58 % 0 mm
12:57 -11.9 °C -16.3 °C 34405.1 hPa WNW 9.3 km/h 20.3 km/h 58 % 0 mm
13:00 -11.9 °C -16.5 °C 34371.3 hPa WNW 8.9 km/h 17.9 km/h 57 % 0 mm
13:02 -12 °C -16.6 °C 34371.3 hPa WNW 10.1 km/h 19.2 km/h 57 % 0 mm
13:07 -12.1 °C -16.6 °C 34371.3 hPa NW 8.9 km/h 19.2 km/h 57 % 0 mm
13:08 -12.1 °C -16.6 °C 34371.3 hPa NW 8.5 km/h 19.2 km/h 57 % 0 mm
13:13 -12.1 °C -16.6 °C 34371.3 hPa West 10.6 km/h 29 km/h 57 % 0 mm
13:14 -12.1 °C -16.6 °C 34371.3 hPa West 10.9 km/h 29 km/h 57 % 0 mm
13:19 -12.1 °C -16.6 °C 34371.3 hPa West 12.4 km/h 29 km/h 57 % 0 mm
13:21 -12.1 °C -16.6 °C 34371.3 hPa West 11.6 km/h 29 km/h 57 % 0 mm
13:26 -12.2 °C -16.7 °C 34371.3 hPa West 10.9 km/h 33.6 km/h 57 % 0 mm
13:31 -12.2 °C -16.7 °C 34337.4 hPa West 12.2 km/h 33.6 km/h 57 % 0 mm
13:35 -12.2 °C -16.7 °C 34337.4 hPa West 13.5 km/h 27.2 km/h 57 % 0 mm
13:36 -12.2 °C -16.7 °C 34337.4 hPa WSW 11.9 km/h 27.2 km/h 57 % 0 mm
13:41 -12.2 °C -16.7 °C 34337.4 hPa West 10.3 km/h 27.2 km/h 57 % 0 mm
13:42 -12.2 °C -16.7 °C 34337.4 hPa West 10.1 km/h 27.2 km/h 57 % 0 mm
13:47 -12.2 °C -16.7 °C 34337.4 hPa WNW 11.4 km/h 33.2 km/h 57 % 0 mm
13:48 -12.2 °C -16.7 °C 34337.4 hPa WNW 12.4 km/h 33.2 km/h 57 % 0 mm
13:51 -12.2 °C -16.7 °C 34337.4 hPa WNW 12.7 km/h 33.2 km/h 57 % 0 mm
13:56 -12.2 °C -16.7 °C 34337.4 hPa WNW 10.6 km/h 33.2 km/h 57 % 0 mm
13:57 -12.2 °C -16.7 °C 34337.4 hPa WNW 10.9 km/h 28.5 km/h 57 % 0 mm
13:58 -12.2 °C -16.7 °C 34371.3 hPa West 9.8 km/h 23 km/h 57 % 0 mm
14:04 -12.2 °C -16.7 °C 34371.3 hPa West 9.8 km/h 22.5 km/h 57 % 0 mm
14:05 -12.2 °C -16.7 °C 34371.3 hPa West 9 km/h 22.5 km/h 57 % 0 mm
14:10 -12.1 °C -16.4 °C 34371.3 hPa WSW 9.7 km/h 22.5 km/h 58 % 0 mm
14:14 -12 °C -16.4 °C 34371.3 hPa West 9.8 km/h 19.6 km/h 58 % 0 mm
14:15 -12 °C -16.4 °C 34371.3 hPa West 9.3 km/h 19.6 km/h 58 % 0 mm
14:20 -11.9 °C -16.3 °C 34371.3 hPa West 9.3 km/h 19.6 km/h 58 % 0 mm
14:23 -11.9 °C -16.3 °C 34371.3 hPa WSW 9.7 km/h 19.6 km/h 58 % 0 mm
14:28 -12 °C -16.4 °C 34371.3 hPa WSW 9 km/h 19.6 km/h 58 % 0 mm
14:33 -12 °C -16.4 °C 34371.3 hPa West 10.6 km/h 34.8 km/h 58 % 0 mm
14:35 -12 °C -16.4 °C 34371.3 hPa West 11.4 km/h 34.8 km/h 58 % 0 mm
14:36 -12 °C -16.4 °C 34371.3 hPa West 11.1 km/h 34.8 km/h 58 % 0 mm
14:41 -12.1 °C -16.6 °C 34371.3 hPa West 9.7 km/h 27.2 km/h 57 % 0 mm
14:44 -12.1 °C -16.6 °C 34337.4 hPa West 9.3 km/h 27.2 km/h 57 % 0 mm
14:49 -12.1 °C -16.6 °C 34337.4 hPa WSW 10.3 km/h 25.4 km/h 57 % 0 mm
14:52 -12.1 °C -16.6 °C 34337.4 hPa West 8.9 km/h 20.9 km/h 57 % 0 mm
14:56 -12.2 °C -16.7 °C 34337.4 hPa West 10.1 km/h 33.2 km/h 57 % 0 mm
15:01 -12.3 °C -16.8 °C 34337.4 hPa WSW 9.8 km/h 33.2 km/h 57 % 0 mm
15:06 -12.3 °C -16.8 °C 34337.4 hPa West 9.3 km/h 19.2 km/h 57 % 0 mm
15:07 -12.3 °C -16.8 °C 34337.4 hPa West 9.3 km/h 19.2 km/h 57 % 0 mm
15:08 -12.3 °C -16.8 °C 34337.4 hPa West 9.7 km/h 19.2 km/h 57 % 0 mm
15:12 -12.4 °C -16.9 °C 34337.4 hPa West 11.1 km/h 19.6 km/h 57 % 0 mm
15:14 -12.4 °C -16.9 °C 34371.3 hPa West 11.1 km/h 19.6 km/h 57 % 0 mm
15:18 -12.5 °C -17 °C 34371.3 hPa WSW 10.3 km/h 18.7 km/h 57 % 0 mm
15:20 -12.5 °C -17 °C 34371.3 hPa WSW 9 km/h 18.7 km/h 57 % 0 mm
15:21 -12.5 °C -16.9 °C 34371.3 hPa West 9.3 km/h 26.2 km/h 58 % 0 mm
15:26 -12.6 °C -16.9 °C 34371.3 hPa West 10.3 km/h 26.2 km/h 58 % 0 mm
15:28 -12.6 °C -16.9 °C 34337.4 hPa West 10.6 km/h 26.2 km/h 58 % 0 mm
15:32 -12.6 °C -17 °C 34337.4 hPa West 11.9 km/h 23.8 km/h 58 % 0 mm
15:37 -12.6 °C -17 °C 34337.4 hPa West 11.6 km/h 20.9 km/h 58 % 0 mm
15:38 -12.6 °C -17 °C 34337.4 hPa West 11.6 km/h 20.9 km/h 58 % 0 mm
15:43 -12.7 °C -16.9 °C 34371.3 hPa WSW 9.7 km/h 15.6 km/h 59 % 0 mm
15:47 -12.7 °C -16.9 °C 34371.3 hPa WSW 9 km/h 16.3 km/h 59 % 0 mm
15:50 -12.7 °C -16.9 °C 34371.3 hPa West 8 km/h 16.3 km/h 59 % 0 mm
15:55 -12.8 °C -17 °C 34371.3 hPa West 7.7 km/h 16.3 km/h 59 % 0 mm
16:00 -12.9 °C -17 °C 34371.3 hPa West 5.5 km/h 17.4 km/h 60 % 0 mm
16:01 -12.9 °C -17 °C 34371.3 hPa West 5.5 km/h 17.4 km/h 60 % 0 mm
16:06 -12.9 °C -16.9 °C 34371.3 hPa West 6.9 km/h 18.7 km/h 61 % 0 mm
16:07 -12.9 °C -16.9 °C 34371.3 hPa West 8.2 km/h 18.7 km/h 61 % 0 mm
16:12 -12.9 °C -16.9 °C 34371.3 hPa West 11.1 km/h 18.7 km/h 61 % 0 mm
16:16 -13 °C -16.9 °C 34371.3 hPa West 11.1 km/h 16.9 km/h 61 % 0 mm
16:19 -13 °C -16.8 °C 34371.3 hPa WSW 9.8 km/h 16.9 km/h 62 % 0 mm
16:24 -13.1 °C -16.9 °C 34371.3 hPa WSW 9 km/h 16.3 km/h 62 % 0 mm
16:25 -13.1 °C -16.9 °C 34371.3 hPa WSW 9 km/h 16.3 km/h 62 % 0 mm
16:27 -13.1 °C -16.9 °C 34371.3 hPa SW 9.7 km/h 16.3 km/h 62 % 0 mm
16:31 -13.1 °C -16.8 °C 34371.3 hPa WSW 8 km/h 15 km/h 63 % 0 mm
16:32 -13.1 °C -16.8 °C 34371.3 hPa WSW 8.5 km/h 27.7 km/h 63 % 0 mm
16:37 -13.1 °C -16.8 °C 34371.3 hPa WSW 10.1 km/h 27.7 km/h 63 % 0 mm
16:40 -13.2 °C -16.8 °C 34371.3 hPa WSW 10.6 km/h 27.7 km/h 63 % 0 mm
16:45 -13.2 °C -16.9 °C 34371.3 hPa SW 8.9 km/h 18.7 km/h 63 % 0 mm
16:46 -13.2 °C -16.9 °C 34371.3 hPa SW 8.5 km/h 16.3 km/h 63 % 0 mm
16:50 -13.2 °C -16.8 °C 34371.3 hPa WSW 8.2 km/h 16.9 km/h 64 % 0 mm
16:53 -13.3 °C -16.8 °C 34371.3 hPa SW 6.8 km/h 16.9 km/h 64 % 0 mm
16:54 -13.3 °C -16.8 °C 34371.3 hPa SW 6.4 km/h 16.9 km/h 64 % 0 mm
16:59 -13.3 °C -16.8 °C 34337.4 hPa SW 5.6 km/h 15 km/h 64 % 0 mm
17:03 -13.3 °C -16.8 °C 34337.4 hPa WSW 6.9 km/h 19.6 km/h 65 % 0 mm
17:08 -13.4 °C -16.8 °C 34337.4 hPa WSW 7.7 km/h 20.3 km/h 65 % 0 mm
17:11 -13.3 °C -16.8 °C 34337.4 hPa WSW 8.9 km/h 20.3 km/h 65 % 0 mm
17:16 -13.3 °C -16.6 °C 34371.3 hPa WSW 9.8 km/h 22.5 km/h 66 % 0 mm
17:17 -13.3 °C -16.6 °C 34371.3 hPa WSW 10.6 km/h 22.5 km/h 66 % 0 mm
17:22 -13.3 °C -16.6 °C 34371.3 hPa WSW 11.1 km/h 24.8 km/h 66 % 0 mm
17:24 -13.3 °C -16.6 °C 34371.3 hPa SW 11.6 km/h 24.8 km/h 66 % 0 mm
17:25 -13.3 °C -16.6 °C 34371.3 hPa SW 12.2 km/h 24.8 km/h 66 % 0 mm
17:30 -13.3 °C -16.5 °C 34371.3 hPa WSW 15 km/h 20.9 km/h 67 % 0 mm
17:31 -13.3 °C -16.5 °C 34371.3 hPa WSW 14.5 km/h 20.9 km/h 67 % 0 mm
17:32 -13.3 °C -16.5 °C 34371.3 hPa SW 14.2 km/h 20.9 km/h 67 % 0 mm
17:36 -13.3 °C -16.5 °C 34371.3 hPa SW 11.1 km/h 19.6 km/h 67 % 0 mm
17:41 -13.3 °C -16.5 °C 34371.3 hPa WSW 10.1 km/h 18.7 km/h 67 % 0 mm
17:42 -13.3 °C -16.5 °C 34371.3 hPa WSW 10.1 km/h 18.7 km/h 67 % 0 mm
17:47 -13.3 °C -16.3 °C 34337.4 hPa SW 10.6 km/h 18.7 km/h 68 % 0 mm
17:49 -13.3 °C -16.3 °C 34337.4 hPa SW 10.3 km/h 18.7 km/h 68 % 0 mm
17:52 -13.3 °C -16.3 °C 34337.4 hPa SW 9 km/h 14.5 km/h 68 % 0 mm
17:54 -13.3 °C -16.3 °C 34337.4 hPa SW 8.5 km/h 14 km/h 68 % 0 mm
17:59 -13.3 °C -16.4 °C 34371.3 hPa WSW 8.2 km/h 14.5 km/h 68 % 0 mm
18:00 -13.3 °C -16.4 °C 34371.3 hPa WSW 8.2 km/h 14.5 km/h 68 % 0 mm
18:05 -13.3 °C -16.3 °C 34371.3 hPa SW 9 km/h 15.6 km/h 68 % 0 mm
18:07 -13.3 °C -16.3 °C 34371.3 hPa SW 9 km/h 15.6 km/h 68 % 0 mm
18:13 -13.3 °C -16.2 °C 34337.4 hPa SW 9.3 km/h 15.6 km/h 69 % 0 mm
18:15 -13.3 °C -16.2 °C 34337.4 hPa WSW 9 km/h 19.2 km/h 69 % 0 mm
18:20 -13.3 °C -16.2 °C 34337.4 hPa WSW 8.2 km/h 19.2 km/h 69 % 0 mm
18:25 -13.3 °C -16.2 °C 34337.4 hPa SW 6.9 km/h 11.1 km/h 69 % 0 mm
18:29 -13.3 °C -16.2 °C 34371.3 hPa SW 6.3 km/h 11.1 km/h 69 % 0 mm
18:31 -13.3 °C -16.2 °C 34371.3 hPa WSW 4.7 km/h 11.1 km/h 69 % 0 mm
18:36 -13.3 °C -16.3 °C 34371.3 hPa NW 1 km/h 6.4 km/h 69 % 0 mm
18:38 -13.4 °C -16.2 °C 34371.3 hPa West 0.3 km/h 2.3 km/h 70 % 0 mm
18:43 -13.4 °C -16.2 °C 34337.4 hPa SSW 1.8 km/h 8.9 km/h 70 % 0 mm
18:44 -13.4 °C -16.2 °C 34337.4 hPa SSW 2.1 km/h 8.9 km/h 70 % 0 mm
18:46 -13.4 °C -16.2 °C 34337.4 hPa SSW 2.3 km/h 8.9 km/h 70 % 0 mm
18:49 -13.4 °C -16.2 °C 34337.4 hPa South 2.1 km/h 8.9 km/h 70 % 0 mm
18:54 -13.4 °C -16.2 °C 34337.4 hPa WSW 2.1 km/h 10.3 km/h 70 % 0 mm
18:55 -13.4 °C -16.2 °C 34337.4 hPa West 2.3 km/h 15.6 km/h 70 % 0 mm
19:00 -13.4 °C -16.2 °C 34371.3 hPa West 5.1 km/h 15.6 km/h 71 % 0 mm
19:01 -13.3 °C -16.2 °C 34371.3 hPa WNW 6.4 km/h 15.6 km/h 70 % 0 mm
19:06 -13.3 °C -16.1 °C 34371.3 hPa WNW 4.3 km/h 14.5 km/h 71 % 0 mm
19:09 -13.3 °C -16 °C 34371.3 hPa WNW 4.3 km/h 14.5 km/h 71 % 0 mm
19:14 -13.3 °C -16.1 °C 34337.4 hPa West 1.3 km/h 11.1 km/h 71 % 0 mm
19:16 -13.3 °C -16.1 °C 34337.4 hPa WNW 2.1 km/h 11.1 km/h 71 % 0 mm
19:17 -13.3 °C -16.1 °C 34337.4 hPa NE 1.6 km/h 7.6 km/h 71 % 0 mm
19:22 -13.3 °C -16.1 °C 34337.4 hPa NNE 0.8 km/h 7.6 km/h 71 % 0 mm
19:24 -13.3 °C -16.1 °C 34337.4 hPa NW 1.3 km/h 7.6 km/h 71 % 0 mm
19:29 -13.3 °C -16.1 °C 34371.3 hPa SW 2.1 km/h 8.9 km/h 71 % 0 mm
19:31 -13.3 °C -16.1 °C 34371.3 hPa SSW 3.1 km/h 8.9 km/h 71 % 0 mm
19:36 -13.3 °C -15.9 °C 34371.3 hPa South 4.2 km/h 10.3 km/h 72 % 0 mm
19:37 -13.3 °C -15.9 °C 34371.3 hPa South 4.7 km/h 10.3 km/h 72 % 0 mm
19:39 -13.3 °C -15.9 °C 34371.3 hPa SSW 4.7 km/h 10.3 km/h 72 % 0 mm
19:42 -13.3 °C -15.9 °C 34371.3 hPa SW 5.1 km/h 10.3 km/h 72 % 0 mm
19:47 -13.3 °C -15.9 °C 34337.4 hPa SW 6.4 km/h 14.5 km/h 72 % 0 mm
19:49 -13.3 °C -15.9 °C 34337.4 hPa SW 6.9 km/h 15 km/h 72 % 0 mm
19:51 -13.3 °C -15.9 °C 34337.4 hPa SW 7.6 km/h 15.6 km/h 72 % 0 mm
19:56 -13.3 °C -15.9 °C 34337.4 hPa SW 8.9 km/h 15.6 km/h 72 % 0 mm
19:57 -13.3 °C -15.9 °C 34337.4 hPa SW 8.5 km/h 15.6 km/h 72 % 0 mm
20:02 -13.3 °C -15.9 °C 34337.4 hPa SW 7.7 km/h 12.2 km/h 72 % 0 mm
20:04 -13.3 °C -15.9 °C 34337.4 hPa SW 7.7 km/h 12.2 km/h 72 % 0 mm
20:08 -13.3 °C -15.9 °C 34337.4 hPa SW 6 km/h 11.1 km/h 72 % 0 mm
20:10 -13.3 °C -15.9 °C 34337.4 hPa SW 5.1 km/h 11.1 km/h 72 % 0 mm
20:15 -13.3 °C -15.9 °C 34337.4 hPa SSW 5.6 km/h 12.2 km/h 73 % 0 mm
20:17 -13.3 °C -15.9 °C 34337.4 hPa SSW 6.3 km/h 12.2 km/h 73 % 0 mm
20:21 -13.3 °C -15.9 °C 34337.4 hPa SW 6.4 km/h 12.2 km/h 73 % 0 mm
20:26 -13.3 °C -15.9 °C 34337.4 hPa SSW 8.9 km/h 20.3 km/h 73 % 0 mm
20:27 -13.3 °C -15.9 °C 34337.4 hPa SSW 9.3 km/h 20.3 km/h 73 % 0 mm
20:32 -13.3 °C -15.9 °C 34337.4 hPa SSW 10.6 km/h 20.3 km/h 73 % 0 mm
20:35 -13.3 °C -15.9 °C 34337.4 hPa SSW 9.8 km/h 16.9 km/h 73 % 0 mm
20:40 -13.4 °C -15.9 °C 34337.4 hPa SSW 7.7 km/h 15.6 km/h 73 % 0 mm
20:41 -13.4 °C -15.9 °C 34337.4 hPa SSW 8 km/h 15.6 km/h 73 % 0 mm
20:43 -13.4 °C -15.9 °C 34303.6 hPa SSW 8.9 km/h 19.6 km/h 73 % 0 mm
20:49 -13.4 °C -15.8 °C 34303.6 hPa SSW 11.1 km/h 19.6 km/h 74 % 0 mm
20:53 -13.4 °C -15.8 °C 34303.6 hPa SSW 11.4 km/h 19.6 km/h 74 % 0 mm
20:58 -13.4 °C -15.8 °C 34303.6 hPa SSW 9.7 km/h 18.7 km/h 74 % 0 mm
20:59 -13.4 °C -15.8 °C 34303.6 hPa SSW 9.3 km/h 18.7 km/h 74 % 0 mm
21:04 -13.4 °C -15.8 °C 34303.6 hPa SW 6.9 km/h 15.6 km/h 74 % 0 mm
21:06 -13.4 °C -15.8 °C 34303.6 hPa SW 6 km/h 15.6 km/h 74 % 0 mm
21:09 -13.4 °C -15.8 °C 34303.6 hPa SSW 6 km/h 15.6 km/h 74 % 0 mm
21:11 -13.4 °C -15.9 °C 34303.6 hPa SSW 5.6 km/h 8.9 km/h 74 % 0 mm
21:17 -13.4 °C -15.9 °C 34303.6 hPa SSW 4.3 km/h 8 km/h 74 % 0 mm
21:18 -13.4 °C -15.9 °C 34303.6 hPa SW 4.7 km/h 10.3 km/h 74 % 0 mm
21:20 -13.4 °C -15.9 °C 34303.6 hPa SW 4.2 km/h 10.3 km/h 74 % 0 mm
21:25 -13.4 °C -15.9 °C 34303.6 hPa SW 3.4 km/h 10.3 km/h 74 % 0 mm
21:30 -13.5 °C -15.9 °C 34269.7 hPa South 3.1 km/h 7.6 km/h 74 % 0 mm
21:31 -13.5 °C -15.9 °C 34269.7 hPa South 3.1 km/h 7.6 km/h 74 % 0 mm
21:35 -13.5 °C -15.9 °C 34269.7 hPa South 3.9 km/h 9.3 km/h 74 % 0 mm
21:37 -13.5 °C -15.9 °C 34269.7 hPa South 3.7 km/h 9.3 km/h 74 % 0 mm
21:42 -13.6 °C -15.9 °C 34269.7 hPa SSW 2.1 km/h 9.3 km/h 74 % 0 mm
21:44 -13.6 °C -16 °C 34303.6 hPa SSW 1.6 km/h 9.3 km/h 74 % 0 mm
21:49 -13.6 °C -16 °C 34303.6 hPa WSW 0.3 km/h 4.2 km/h 74 % 0 mm
21:50 -13.6 °C -16 °C 34303.6 hPa SW 0.3 km/h 2.9 km/h 74 % 0 mm
21:55 -13.6 °C -15.9 °C 34303.6 hPa Calm     75 % 0 mm
22:00 -13.6 °C -15.9 °C 34337.4 hPa SSW 1.8 km/h 7.6 km/h 75 % 0 mm
22:03 -13.6 °C -15.9 °C 34337.4 hPa SW 3.1 km/h 10.3 km/h 75 % 0 mm
22:04 -13.6 °C -15.9 °C 34337.4 hPa SSW 3.4 km/h 10.3 km/h 75 % 0 mm
22:09 -13.6 °C -15.9 °C 34337.4 hPa SSW 3.9 km/h 10.3 km/h 75 % 0 mm
22:10 -13.6 °C -15.9 °C 34337.4 hPa SSW 3.7 km/h 10.3 km/h 75 % 0 mm
22:15 -13.6 °C -15.9 °C 34303.6 hPa SSW 4.7 km/h 11.1 km/h 75 % 0 mm
22:19 -13.6 °C -15.9 °C 34303.6 hPa SSW 7.6 km/h 14 km/h 75 % 0 mm
22:24 -13.6 °C -15.9 °C 34303.6 hPa SSW 7.7 km/h 14 km/h 75 % 0 mm
22:29 -13.5 °C -15.8 °C 34303.6 hPa SSW 4.3 km/h 11.1 km/h 75 % 0 mm
22:32 -13.5 °C -15.8 °C 34303.6 hPa SW 2.3 km/h 9.8 km/h 75 % 0 mm
22:34 -13.5 °C -15.7 °C 34303.6 hPa WSW 2.6 km/h 9.8 km/h 76 % 0 mm
22:39 -13.5 °C -15.7 °C 34303.6 hPa SW 4.2 km/h 11.1 km/h 76 % 0 mm
22:40 -13.5 °C -15.7 °C 34303.6 hPa SW 4.3 km/h 11.1 km/h 76 % 0 mm
22:45 -13.5 °C -15.7 °C 34303.6 hPa SW 5.5 km/h 12.7 km/h 76 % 0 mm
22:48 -13.5 °C -15.7 °C 34303.6 hPa WSW 4.3 km/h 12.7 km/h 76 % 0 mm
22:51 -13.5 °C -15.7 °C 34303.6 hPa SW 5.1 km/h 12.7 km/h 76 % 0 mm
22:56 -13.4 °C -15.7 °C 34303.6 hPa SW 6.9 km/h 12.2 km/h 76 % 0 mm
22:57 -13.4 °C -15.7 °C 34303.6 hPa SW 7.7 km/h 12.2 km/h 76 % 0 mm
23:02 -13.4 °C -15.7 °C 34303.6 hPa SW 6.4 km/h 16.9 km/h 76 % 0 mm
23:05 -13.4 °C -15.7 °C 34303.6 hPa SW 7.2 km/h 16.9 km/h 76 % 0 mm
23:07 -13.4 °C -15.7 °C 34303.6 hPa SW 7.2 km/h 16.9 km/h 76 % 0 mm
23:12 -13.4 °C -15.7 °C 34303.6 hPa SW 7.7 km/h 14.5 km/h 76 % 0 mm
23:13 -13.4 °C -15.7 °C 34303.6 hPa SW 7.7 km/h 14.5 km/h 76 % 0 mm
23:18 -13.5 °C -15.7 °C 34303.6 hPa SW 6.3 km/h 16.9 km/h 76 % 0 mm
23:22 -13.5 °C -15.7 °C 34303.6 hPa SW 6.8 km/h 16.9 km/h 76 % 0 mm
23:27 -13.5 °C -15.7 °C 34303.6 hPa SSW 6.8 km/h 12.2 km/h 76 % 0 mm
23:28 -13.5 °C -15.7 °C 34303.6 hPa SSW 6.9 km/h 12.2 km/h 76 % 0 mm
23:33 -13.4 °C -15.7 °C 34303.6 hPa SSW 6.3 km/h 12.2 km/h 76 % 0 mm
23:34 -13.4 °C -15.7 °C 34303.6 hPa SSW 5.6 km/h 11.1 km/h 76 % 0 mm
23:36 -13.4 °C -15.7 °C 34303.6 hPa South 6 km/h 11.1 km/h 76 % 0 mm
23:41 -13.4 °C -15.7 °C 34303.6 hPa South 4.7 km/h 11.1 km/h 76 % 0 mm
23:46 -13.5 °C -15.7 °C 34269.7 hPa SSW 4.2 km/h 11.1 km/h 76 % 0 mm
23:47 -13.5 °C -15.7 °C 34269.7 hPa SSW 4.3 km/h 11.1 km/h 76 % 0 mm
23:52 -13.5 °C -15.7 °C 34269.7 hPa SSW 3.9 km/h 10.3 km/h 76 % 0 mm
23:57 -13.5 °C -15.7 °C 34269.7 hPa South 5 km/h 10.3 km/h 76 % 0 mm
Vremenska postaja Senovo
Podatki zbrani iz Weather Underground - 3.75 mb

Script developed by  Jim McMurry - jmcmurry@mwt.net Adapted for the template by  Wim van der Kuil - Leuven-Template.eu

Vremenski podatki so objavljeni na:

European Weather Network

WeatherCloud

Weather Underground

AWEKAS

HAMweather, WeatherForYou, PWS Weather

MapView

Geostik

Slovenia weather network

Oprema, ki se uporablja:

Vremenski program
Cumulus

Vremenski server
Asus

Cumulus

Asus